createdAt,value
2022-08-17T00:00:00.999Z,74.04
2022-08-17T00:02:27.985Z,74.37
2022-08-17T00:04:56.034Z,75.09
2022-08-17T00:07:23.128Z,75.32
2022-08-17T00:09:50.262Z,75.49
2022-08-17T00:12:41.578Z,75.95
2022-08-17T00:15:06.246Z,75.61
2022-08-17T00:17:38.083Z,75.89
2022-08-17T00:20:06.636Z,75.24
2022-08-17T00:22:36.538Z,75.66
2022-08-17T00:25:17.595Z,75.55
2022-08-17T00:27:44.421Z,75.91
2022-08-17T00:30:13.252Z,76.03
2022-08-17T00:33:12.287Z,77.68
2022-08-17T00:35:35.215Z,78.30
2022-08-17T00:38:04.069Z,78.58
2022-08-17T00:40:39.916Z,78.12
2022-08-17T00:43:45.598Z,78.30
2022-08-17T00:46:29.968Z,78.92
2022-08-17T00:48:57.427Z,78.69
2022-08-17T00:51:46.519Z,78.94
2022-08-17T00:54:18.732Z,79.32
2022-08-17T00:56:57.196Z,78.71
2022-08-17T00:59:31.847Z,78.06
2022-08-17T01:02:00.594Z,78.22
2022-08-17T01:04:31.372Z,78.87
2022-08-17T01:07:01.258Z,79.17
2022-08-17T01:09:28.491Z,79.31
2022-08-17T01:11:55.939Z,79.67
2022-08-17T01:14:25.544Z,80.33
2022-08-17T01:16:55.638Z,80.31
2022-08-17T01:19:31.006Z,80.84
2022-08-17T01:22:20.979Z,80.91
2022-08-17T01:24:57.618Z,81.66
2022-08-17T01:27:26.584Z,81.17
2022-08-17T01:30:00.834Z,81.37
2022-08-17T01:32:30.352Z,81.91
2022-08-17T01:34:58.215Z,80.75
2022-08-17T01:37:34.435Z,79.82
2022-08-17T01:40:33.527Z,79.57
2022-08-17T01:43:08.517Z,79.90
2022-08-17T01:45:44.639Z,80.52
2022-08-17T01:48:13.019Z,80.46
2022-08-17T01:50:44.234Z,80.65
2022-08-17T01:53:19.746Z,80.98
2022-08-17T01:55:52.330Z,81.23
2022-08-17T01:58:21.349Z,81.39
2022-08-17T02:01:00.994Z,81.54
2022-08-17T02:03:29.782Z,81.49
2022-08-17T02:05:57.095Z,81.56
2022-08-17T02:08:37.162Z,81.73
2022-08-17T02:11:12.494Z,81.34
2022-08-17T02:13:40.387Z,80.84
2022-08-17T02:16:07.472Z,81.29
2022-08-17T02:18:34.539Z,81.72
2022-08-17T02:21:02.278Z,81.93
2022-08-17T02:23:32.808Z,81.90
2022-08-17T02:26:01.335Z,81.56
2022-08-17T02:28:29.209Z,80.95
2022-08-17T02:31:01.747Z,81.14
2022-08-17T02:33:43.100Z,80.97
2022-08-17T02:36:12.704Z,80.92
2022-08-17T02:38:41.230Z,80.80
2022-08-17T02:41:09.048Z,80.76
2022-08-17T02:43:35.954Z,80.65
2022-08-17T02:46:02.829Z,80.39
2022-08-17T02:48:31.436Z,80.05
2022-08-17T02:51:01.033Z,79.84
2022-08-17T02:53:33.660Z,79.96
2022-08-17T02:56:03.536Z,79.80
2022-08-17T02:58:35.261Z,79.77
2022-08-17T03:01:09.631Z,80.12
2022-08-17T03:03:38.142Z,80.76
2022-08-17T03:06:07.541Z,80.98
2022-08-17T03:08:35.506Z,80.85
2022-08-17T03:11:02.349Z,80.31
2022-08-17T03:13:30.896Z,80.19
2022-08-17T03:15:58.412Z,80.58
2022-08-17T03:18:26.346Z,80.44
2022-08-17T03:21:00.447Z,80.03
2022-08-17T03:23:29.718Z,79.53
2022-08-17T03:25:58.652Z,78.48
2022-08-17T03:28:26.050Z,78.33
2022-08-17T03:30:52.920Z,77.64
2022-08-17T03:33:20.311Z,78.19
2022-08-17T03:35:47.423Z,77.71
2022-08-17T03:38:17.374Z,76.97
2022-08-17T03:40:57.471Z,76.21
2022-08-17T03:43:30.854Z,74.77
2022-08-17T03:46:28.310Z,76.06
2022-08-17T03:49:25.677Z,76.58
2022-08-17T03:52:13.927Z,76.04
2022-08-17T03:55:02.264Z,76.10
2022-08-17T03:57:29.184Z,76.88
2022-08-17T03:59:56.906Z,77.01
2022-08-17T04:02:34.314Z,77.55
2022-08-17T04:05:02.069Z,77.41
2022-08-17T04:07:31.507Z,76.52
2022-08-17T04:10:00.456Z,75.91
2022-08-17T04:12:31.567Z,75.91
2022-08-17T04:14:59.155Z,75.73
2022-08-17T04:17:28.901Z,75.56
2022-08-17T04:19:56.697Z,75.35
2022-08-17T04:22:31.994Z,75.31
2022-08-17T04:25:09.901Z,75.35
2022-08-17T04:27:37.121Z,76.00
2022-08-17T04:30:07.239Z,76.11
2022-08-17T04:33:06.430Z,75.26
2022-08-17T04:35:50.017Z,74.21
2022-08-17T04:38:21.862Z,74.86
2022-08-17T04:41:07.830Z,75.66
2022-08-17T04:43:36.762Z,75.72
2022-08-17T04:46:10.388Z,75.73
2022-08-17T04:48:42.585Z,75.82
2022-08-17T04:51:27.837Z,75.28
2022-08-17T04:54:00.381Z,75.13
2022-08-17T04:56:29.609Z,75.04
2022-08-17T04:59:02.590Z,75.10
2022-08-17T05:01:34.486Z,75.25
2022-08-17T05:04:33.283Z,74.67
2022-08-17T05:06:55.047Z,74.72
2022-08-17T05:09:22.160Z,74.98
2022-08-17T05:11:51.311Z,74.48
2022-08-17T05:14:18.237Z,74.60
2022-08-17T05:16:45.759Z,74.35
2022-08-17T05:19:12.627Z,74.00
2022-08-17T05:21:39.542Z,73.84
2022-08-17T05:24:38.374Z,73.91
2022-08-17T05:26:53.404Z,74.57
2022-08-17T05:29:22.157Z,76.28
2022-08-17T05:32:39.173Z,76.44
2022-08-17T05:35:00.424Z,75.78
2022-08-17T05:37:28.011Z,75.36
2022-08-17T05:39:55.233Z,74.17
2022-08-17T05:42:22.582Z,74.02
2022-08-17T05:44:49.488Z,74.21
2022-08-17T05:47:18.022Z,73.72
2022-08-17T05:49:44.985Z,73.37
2022-08-17T05:52:56.251Z,73.16
2022-08-17T05:56:29.465Z,73.69
2022-08-17T05:59:37.742Z,74.20
2022-08-17T06:02:22.284Z,74.61
2022-08-17T06:05:29.172Z,74.39
2022-08-17T06:08:32.268Z,74.66
2022-08-17T06:11:44.190Z,73.81
2022-08-17T06:14:35.579Z,73.46
2022-08-17T06:17:09.398Z,72.89
2022-08-17T06:20:01.432Z,72.18
2022-08-17T06:22:37.920Z,71.61
2022-08-17T06:25:17.901Z,71.21
2022-08-17T06:27:55.912Z,71.87
2022-08-17T06:30:57.799Z,72.11
2022-08-17T06:33:24.621Z,71.91
2022-08-17T06:36:40.176Z,72.81
2022-08-17T06:39:40.975Z,72.72
2022-08-17T06:43:02.597Z,72.45
2022-08-17T06:45:39.100Z,72.37
2022-08-17T06:48:31.212Z,72.29
2022-08-17T06:51:25.913Z,71.96
2022-08-17T06:53:59.896Z,71.22
2022-08-17T06:57:05.770Z,70.45
2022-08-17T06:59:57.358Z,69.65
2022-08-17T07:03:15.461Z,69.00
2022-08-17T07:06:01.632Z,69.02
2022-08-17T07:08:51.140Z,68.74
2022-08-17T07:11:39.867Z,68.56
2022-08-17T07:14:38.154Z,68.02
2022-08-17T07:17:12.055Z,67.72
2022-08-17T07:19:45.622Z,68.98
2022-08-17T07:22:53.511Z,69.36
2022-08-17T07:25:28.492Z,70.11
2022-08-17T07:28:00.766Z,70.23
2022-08-17T07:30:40.081Z,70.46
2022-08-17T07:33:21.218Z,71.44
2022-08-17T07:35:50.211Z,71.52
2022-08-17T07:38:35.770Z,71.02
2022-08-17T07:41:10.609Z,70.15
2022-08-17T07:43:52.805Z,70.49
2022-08-17T07:46:50.768Z,70.84
2022-08-17T07:49:40.712Z,70.85
2022-08-17T07:52:47.865Z,71.36
2022-08-17T07:55:32.851Z,72.34
2022-08-17T07:58:00.199Z,74.34
2022-08-17T08:00:32.295Z,75.46
2022-08-17T08:03:11.302Z,76.47
2022-08-17T08:06:01.898Z,74.92
2022-08-17T08:08:43.300Z,74.29
2022-08-17T08:11:29.749Z,71.75
2022-08-17T08:14:29.559Z,71.50
2022-08-17T08:17:06.353Z,70.80
2022-08-17T08:19:36.497Z,70.56
2022-08-17T08:22:22.029Z,70.07
2022-08-17T08:25:07.898Z,68.98
2022-08-17T08:28:10.798Z,69.30
2022-08-17T08:30:49.397Z,68.52
2022-08-17T08:33:39.875Z,68.78
2022-08-17T08:37:12.668Z,69.67
2022-08-17T08:39:28.540Z,70.64
2022-08-17T08:42:17.677Z,70.16
2022-08-17T08:45:09.831Z,70.69
2022-08-17T08:48:23.127Z,70.90
2022-08-17T08:51:13.546Z,71.54
2022-08-17T08:53:47.726Z,70.23
2022-08-17T08:57:04.987Z,69.19
2022-08-17T09:00:02.108Z,69.16
2022-08-17T09:03:37.592Z,68.91
2022-08-17T09:06:57.908Z,68.59
2022-08-17T09:09:59.333Z,68.29
2022-08-17T09:13:20.764Z,68.37
2022-08-17T09:16:46.133Z,68.53
2022-08-17T09:19:44.655Z,69.59
2022-08-17T09:22:36.231Z,70.01
2022-08-17T09:25:12.701Z,70.57
2022-08-17T09:28:02.348Z,70.38
2022-08-17T09:30:43.667Z,70.10
2022-08-17T09:33:17.559Z,70.19
2022-08-17T09:36:14.408Z,69.55
2022-08-17T09:39:10.909Z,69.97
2022-08-17T09:42:04.779Z,70.13
2022-08-17T09:44:44.129Z,71.12
2022-08-17T09:47:45.421Z,71.66
2022-08-17T09:51:05.173Z,72.02
2022-08-17T09:53:27.383Z,72.85
2022-08-17T09:56:25.235Z,73.40
2022-08-17T09:59:01.171Z,75.13
2022-08-17T10:01:55.825Z,77.62
2022-08-17T10:04:48.392Z,78.51
2022-08-17T10:07:28.752Z,78.12
2022-08-17T10:10:32.367Z,78.16
2022-08-17T10:13:19.750Z,77.16
2022-08-17T10:16:29.046Z,77.59
2022-08-17T10:19:30.462Z,76.20
2022-08-17T10:22:34.836Z,76.47
2022-08-17T10:25:42.548Z,74.42
2022-08-17T10:28:25.827Z,72.74
2022-08-17T10:31:33.088Z,71.00
2022-08-17T10:34:23.977Z,69.42
2022-08-17T10:37:05.815Z,68.47
2022-08-17T10:39:54.368Z,68.46
2022-08-17T10:42:32.745Z,68.04
2022-08-17T10:45:14.384Z,68.04
2022-08-17T10:48:31.044Z,68.31
2022-08-17T10:51:11.041Z,68.32
2022-08-17T10:53:41.799Z,67.84
2022-08-17T10:56:15.396Z,67.66
2022-08-17T10:58:58.936Z,67.96
2022-08-17T11:01:38.000Z,67.83
2022-08-17T11:04:11.112Z,67.76
2022-08-17T11:06:37.816Z,67.81
2022-08-17T11:09:55.730Z,67.15
2022-08-17T11:12:54.743Z,66.04
2022-08-17T11:15:36.923Z,65.78
2022-08-17T11:18:34.846Z,66.03
2022-08-17T11:21:29.699Z,66.15
2022-08-17T11:24:26.740Z,65.38
2022-08-17T11:27:33.798Z,64.25
2022-08-17T11:30:04.608Z,63.77
2022-08-17T11:32:52.876Z,63.56
2022-08-17T11:35:21.685Z,63.49
2022-08-17T11:38:46.144Z,63.23
2022-08-17T11:42:07.227Z,62.81
2022-08-17T11:45:07.337Z,63.19
2022-08-17T11:48:35.710Z,63.21
2022-08-17T11:51:33.449Z,63.41
2022-08-17T11:54:34.145Z,63.54
2022-08-17T11:57:27.630Z,63.97
2022-08-17T12:00:14.235Z,65.19
2022-08-17T12:02:48.191Z,66.16
2022-08-17T12:05:19.348Z,65.37
2022-08-17T12:08:06.934Z,65.02
2022-08-17T12:10:41.462Z,63.62
2022-08-17T12:13:16.875Z,63.29
2022-08-17T12:15:49.738Z,62.76
2022-08-17T12:18:32.333Z,62.22
2022-08-17T12:21:15.365Z,60.39
2022-08-17T12:23:53.309Z,59.73
2022-08-17T12:26:26.999Z,59.27
2022-08-17T12:29:01.798Z,60.17
2022-08-17T12:31:54.193Z,60.12
2022-08-17T12:34:36.029Z,60.32
2022-08-17T12:37:15.195Z,59.42
2022-08-17T12:40:05.095Z,59.00
2022-08-17T12:42:41.333Z,57.33
2022-08-17T12:45:25.587Z,56.58
2022-08-17T12:48:14.208Z,55.56
2022-08-17T12:50:45.795Z,55.38
2022-08-17T12:53:17.052Z,49.86
2022-08-17T12:55:44.517Z,47.19
2022-08-17T12:58:30.361Z,43.63
2022-08-17T13:01:09.104Z,41.10
2022-08-17T13:03:44.281Z,40.57
2022-08-17T13:06:25.608Z,39.90
2022-08-17T13:08:52.458Z,41.27
2022-08-17T13:11:24.757Z,42.37
2022-08-17T13:13:56.004Z,43.62
2022-08-17T13:16:29.712Z,44.45
2022-08-17T13:19:15.158Z,42.65
2022-08-17T13:21:51.769Z,42.68
2022-08-17T13:24:21.327Z,40.80
2022-08-17T13:27:08.618Z,39.80
2022-08-17T13:29:53.446Z,40.97
2022-08-17T13:32:39.902Z,40.73
2022-08-17T13:35:50.131Z,40.37
2022-08-17T13:38:47.864Z,43.67
2022-08-17T13:41:36.955Z,46.20
2022-08-17T13:44:31.063Z,42.11
2022-08-17T13:46:59.669Z,40.73
2022-08-17T13:49:41.582Z,37.99
2022-08-17T13:52:52.305Z,40.03
2022-08-17T13:55:28.399Z,40.24
2022-08-17T13:58:07.009Z,39.42
2022-08-17T14:01:21.513Z,40.42
2022-08-17T14:03:53.471Z,41.81
2022-08-17T14:06:49.325Z,42.88
2022-08-17T14:09:09.273Z,43.47
2022-08-17T14:11:36.418Z,42.37
2022-08-17T14:14:04.065Z,43.87
2022-08-17T14:16:31.079Z,41.92
2022-08-17T14:18:58.190Z,43.95
2022-08-17T14:21:25.022Z,37.79
2022-08-17T14:23:54.881Z,37.70
2022-08-17T14:26:23.421Z,41.84
2022-08-17T14:28:56.325Z,42.67
2022-08-17T14:31:24.528Z,40.92
2022-08-17T14:33:52.121Z,40.76
2022-08-17T14:36:19.360Z,41.44
2022-08-17T14:38:46.226Z,39.12
2022-08-17T14:41:21.457Z,39.65
2022-08-17T14:43:50.596Z,38.11
2022-08-17T14:46:17.850Z,38.65
2022-08-17T14:48:46.088Z,38.79
2022-08-17T14:51:13.038Z,41.80
2022-08-17T14:53:42.611Z,39.92
2022-08-17T14:56:09.473Z,42.13
2022-08-17T14:58:36.614Z,40.47
2022-08-17T15:01:11.331Z,41.67
2022-08-17T15:03:42.229Z,40.79
2022-08-17T15:06:15.261Z,41.38
2022-08-17T15:08:44.035Z,42.51
2022-08-17T15:11:14.278Z,42.29
2022-08-17T15:13:52.567Z,42.82
2022-08-17T15:16:20.514Z,44.15
2022-08-17T15:18:47.469Z,45.43
2022-08-17T15:21:15.782Z,44.32
2022-08-17T15:23:43.561Z,43.58
2022-08-17T15:26:11.689Z,44.04
2022-08-17T15:28:38.621Z,44.53
2022-08-17T15:31:06.882Z,44.00
2022-08-17T15:33:34.266Z,45.78
2022-08-17T15:36:09.277Z,43.99
2022-08-17T15:38:39.727Z,44.28
2022-08-17T15:41:15.142Z,43.93
2022-08-17T15:43:44.459Z,43.38
2022-08-17T15:46:19.209Z,43.40
2022-08-17T15:48:50.545Z,42.57
2022-08-17T15:51:30.901Z,42.71
2022-08-17T15:54:19.046Z,41.56
2022-08-17T15:56:49.723Z,42.72
2022-08-17T15:59:16.850Z,43.06
2022-08-17T16:03:14.651Z,42.75
2022-08-17T16:04:31.901Z,43.22
2022-08-17T16:06:59.906Z,43.11
2022-08-17T16:09:27.582Z,42.83
2022-08-17T16:11:56.153Z,43.29
2022-08-17T16:14:32.325Z,43.22
2022-08-17T16:17:00.602Z,43.21
2022-08-17T16:19:27.423Z,43.91
2022-08-17T16:21:54.278Z,43.77
2022-08-17T16:24:21.194Z,44.00
2022-08-17T16:26:48.072Z,44.40
2022-08-17T16:29:15.005Z,45.14
2022-08-17T16:31:43.162Z,46.02
2022-08-17T16:34:17.371Z,46.96
2022-08-17T16:36:51.793Z,47.29
2022-08-17T16:39:29.008Z,48.24
2022-08-17T16:41:57.490Z,49.10
2022-08-17T16:44:31.763Z,49.73
2022-08-17T16:47:02.478Z,50.10
2022-08-17T16:49:36.656Z,50.32
2022-08-17T16:52:10.192Z,50.27
2022-08-17T16:54:43.279Z,50.69
2022-08-17T16:57:11.475Z,50.73
2022-08-17T16:59:40.742Z,50.70
2022-08-17T17:02:12.769Z,51.45
2022-08-17T17:05:06.804Z,52.95
2022-08-17T17:08:08.932Z,53.94
2022-08-17T17:10:44.342Z,54.00
2022-08-17T17:13:32.288Z,54.96
2022-08-17T17:16:15.948Z,53.85
2022-08-17T17:19:08.843Z,53.78
2022-08-17T17:22:15.033Z,54.31
2022-08-17T17:25:03.274Z,54.37
2022-08-17T17:27:48.959Z,54.74
2022-08-17T17:30:43.341Z,55.96
2022-08-17T17:33:19.631Z,55.54
2022-08-17T17:36:06.908Z,55.88
2022-08-17T17:39:17.973Z,55.88
2022-08-17T17:42:07.590Z,56.08
2022-08-17T17:44:43.469Z,56.27
2022-08-17T17:47:12.753Z,56.18
2022-08-17T17:49:46.110Z,56.56
2022-08-17T17:52:37.100Z,58.42
2022-08-17T17:55:16.133Z,58.35
2022-08-17T17:58:08.454Z,59.31
2022-08-17T18:01:08.502Z,59.50
2022-08-17T18:03:58.892Z,59.75
2022-08-17T18:06:39.669Z,59.76
2022-08-17T18:09:41.625Z,60.09
2022-08-17T18:12:28.462Z,59.85
2022-08-17T18:15:36.969Z,61.04
2022-08-17T18:18:17.166Z,61.80
2022-08-17T18:20:55.764Z,62.25
2022-08-17T18:23:28.226Z,62.27
2022-08-17T18:25:56.710Z,62.05
2022-08-17T18:28:32.932Z,61.84
2022-08-17T18:31:09.190Z,62.20
2022-08-17T18:33:39.205Z,61.94
2022-08-17T18:36:07.525Z,62.53
2022-08-17T18:38:42.510Z,63.43
2022-08-17T18:41:30.286Z,64.17
2022-08-17T18:44:15.957Z,64.15
2022-08-17T18:46:42.905Z,64.35
2022-08-17T18:49:28.162Z,64.37
2022-08-17T18:52:28.800Z,64.87
2022-08-17T18:55:15.335Z,65.16
2022-08-17T18:57:47.616Z,65.36
2022-08-17T19:00:41.099Z,64.53
2022-08-17T19:03:20.053Z,66.27
2022-08-17T19:05:48.558Z,66.54
2022-08-17T19:08:33.487Z,66.93
2022-08-17T19:11:16.756Z,67.06
2022-08-17T19:14:06.504Z,67.47
2022-08-17T19:17:12.130Z,67.57
2022-08-17T19:20:18.558Z,67.58
2022-08-17T19:23:04.064Z,67.25
2022-08-17T19:25:37.917Z,67.06
2022-08-17T19:28:48.634Z,66.63
2022-08-17T19:31:23.989Z,67.00
2022-08-17T19:33:51.581Z,66.51
2022-08-17T19:36:25.604Z,66.94
2022-08-17T19:39:20.944Z,67.93
2022-08-17T19:42:06.179Z,68.29
2022-08-17T19:44:59.486Z,69.01
2022-08-17T19:48:03.185Z,69.43
2022-08-17T19:50:49.930Z,69.23
2022-08-17T19:54:06.412Z,68.96
2022-08-17T19:57:01.821Z,69.49
2022-08-17T20:00:05.023Z,70.09
2022-08-17T20:02:48.476Z,70.19
2022-08-17T20:05:25.911Z,70.51
2022-08-17T20:08:13.422Z,70.07
2022-08-17T20:11:10.063Z,69.90
2022-08-17T20:14:09.782Z,69.75
2022-08-17T20:16:36.605Z,70.69
2022-08-17T20:22:11.413Z,71.77
2022-08-17T20:24:55.131Z,70.93
2022-08-17T20:27:31.678Z,70.73
2022-08-17T20:30:04.025Z,70.79
2022-08-17T20:32:51.754Z,70.68
2022-08-17T20:35:33.726Z,70.45
2022-08-17T20:38:34.083Z,70.79
2022-08-17T20:41:10.008Z,71.11
2022-08-17T20:43:37.190Z,71.49
2022-08-17T20:46:28.197Z,72.56
2022-08-17T20:49:14.710Z,73.16
2022-08-17T20:52:02.438Z,72.80
2022-08-17T20:54:54.929Z,72.30
2022-08-17T20:57:37.122Z,72.23
2022-08-17T21:00:30.095Z,72.47
2022-08-17T21:03:22.419Z,72.30
2022-08-17T21:06:17.104Z,72.28
2022-08-17T21:09:16.526Z,72.72
2022-08-17T21:12:02.968Z,72.72
2022-08-17T21:15:00.984Z,72.36
2022-08-17T21:17:56.333Z,72.22
2022-08-17T21:20:44.377Z,71.20
2022-08-17T21:23:26.003Z,71.02
2022-08-17T21:26:30.789Z,71.51
2022-08-17T21:29:31.889Z,72.03
2022-08-17T21:32:06.281Z,73.28
2022-08-17T21:34:35.560Z,73.85
2022-08-17T21:37:30.462Z,74.45
2022-08-17T21:40:11.210Z,74.90
2022-08-17T21:42:47.913Z,74.79
2022-08-17T21:45:36.387Z,74.83
2022-08-17T21:48:19.812Z,74.59
2022-08-17T21:51:01.739Z,74.10
2022-08-17T21:53:59.922Z,73.84
2022-08-17T21:56:36.292Z,73.39
2022-08-17T21:59:28.393Z,73.05
2022-08-17T22:02:00.526Z,73.36
2022-08-17T22:04:30.995Z,73.86
2022-08-17T22:07:02.412Z,74.55
2022-08-17T22:09:45.947Z,74.60
2022-08-17T22:12:21.042Z,74.48
2022-08-17T22:15:06.140Z,73.69
2022-08-17T22:17:46.510Z,74.16
2022-08-17T22:20:20.924Z,74.00
2022-08-17T22:23:09.219Z,73.69
2022-08-17T22:26:00.096Z,73.86
2022-08-17T22:28:47.266Z,73.92
2022-08-17T22:31:24.750Z,74.20
2022-08-17T22:34:15.825Z,75.52
2022-08-17T22:36:43.082Z,76.66
2022-08-17T22:39:09.853Z,77.35
2022-08-17T22:41:59.366Z,80.24
2022-08-17T22:44:47.944Z,75.25
2022-08-17T22:47:14.737Z,74.69
2022-08-17T22:50:25.680Z,75.02
2022-08-17T22:53:22.765Z,76.63
2022-08-17T22:56:17.596Z,78.96
2022-08-17T22:59:31.474Z,80.15
2022-08-17T23:02:21.742Z,82.58
2022-08-17T23:05:16.526Z,83.41
2022-08-17T23:07:46.995Z,84.93
2022-08-17T23:10:14.961Z,84.35
2022-08-17T23:12:42.427Z,85.84
2022-08-17T23:15:19.093Z,88.47
2022-08-17T23:17:46.261Z,86.75
2022-08-17T23:20:15.976Z,87.60
2022-08-17T23:22:51.845Z,88.78
2022-08-17T23:25:31.410Z,91.82
2022-08-17T23:28:01.463Z,90.43
2022-08-17T23:30:32.529Z,91.50
2022-08-17T23:33:04.710Z,91.33
2022-08-17T23:35:40.578Z,90.35
2022-08-17T23:38:10.703Z,91.12
2022-08-17T23:40:39.997Z,91.49
2022-08-17T23:43:24.775Z,92.54
2022-08-17T23:45:59.669Z,92.56
2022-08-17T23:48:36.132Z,92.42
2022-08-17T23:51:09.364Z,94.98
2022-08-17T23:53:42.438Z,94.79
2022-08-17T23:56:11.167Z,96.14
2022-08-17T23:58:43.752Z,96.51
